Данни от 09.08.2022 г. 17:13:00

Температура вътрешна: 28.6 °C
Температура външна: 29.3 °C
Атмосферно налягане: 996.4 hPa
Атмосферно налягане на морско равнище: 1014.2 hPa
Влажност: 47.2 %



История от последните 24 часа

Дата и часTin [°C]P [hPa]Psl [hPa]H [%]Tout [°C]
   09.08.2022 г. 17:00:01      28.6      996.5      1014.3      47.1      28.3   
   09.08.2022 г. 16:30:00      28.6      996.6      1014.4      47.2      27.1   
   09.08.2022 г. 16:00:01      28.6      997.1      1014.9      46.9      25.9   
   09.08.2022 г. 15:30:00      28.6      997.3      1015.1      46.6      24.9   
   09.08.2022 г. 15:00:01      28.5      997.5      1015.3      46.5      28.3   
   09.08.2022 г. 14:30:00      28.5      997.7      1015.5      45.5      30.1   
   09.08.2022 г. 14:00:01      28.5      997.7      1015.5      46.6      30.3   
   09.08.2022 г. 13:30:00      28.5      998.1      1015.9      46.8      29.9   
   09.08.2022 г. 13:00:01      28.5      998.4      1016.2      46.6      29.3   
   09.08.2022 г. 12:30:00      28.4      998.7      1016.5      47.1      28.3   
   09.08.2022 г. 12:00:01      28.4      999.0      1016.8      46.7      27.9   
   09.08.2022 г. 11:30:00      28.3      999.1      1017.0      45.8      27.5   
   09.08.2022 г. 11:00:01      28.3      999.4      1017.3      47.0      26.8   
   09.08.2022 г. 10:30:00      28.2      999.4      1017.3      46.2      25.8   
   09.08.2022 г. 10:00:01      28.1      999.3      1017.1      46.4      24.9   
   09.08.2022 г. 09:30:00      28.0      999.5      1017.3      45.3      23.6   
   09.08.2022 г. 09:00:01      27.8      999.4      1017.2      45.3      22.6   
   09.08.2022 г. 08:30:00      27.9      999.2      1017.1      45.3      22.0   
   09.08.2022 г. 08:00:01      27.8      999.1      1017.0      45.6      21.4   
   09.08.2022 г. 07:30:00      27.7      999.0      1016.8      44.9      20.8   
   09.08.2022 г. 07:00:01      27.6      999.1      1016.9      43.2      19.0   
   09.08.2022 г. 06:30:00      27.7      999.1      1016.9      43.3      19.0   
   09.08.2022 г. 06:00:01      27.7      998.9      1016.7      42.7      19.5   
   09.08.2022 г. 05:30:01      27.8      998.7      1016.5      42.0      19.4   
   09.08.2022 г. 05:00:01      27.8      998.7      1016.6      42.7      19.5   
   09.08.2022 г. 05:00:00      27.8      998.7      1016.5      42.5      19.5   
   09.08.2022 г. 04:30:01      27.9      998.7      1016.6      42.2      19.8   
   09.08.2022 г. 04:00:00      27.9      998.8      1016.6      41.7      20.1   
   09.08.2022 г. 03:30:01      27.9      998.8      1016.6      42.9      20.8   
   09.08.2022 г. 03:00:00      27.9      998.6      1016.4      42.5      22.1   
   09.08.2022 г. 02:30:01      27.7      998.1      1015.9      42.8      21.8   
   09.08.2022 г. 02:00:00      27.7      998.1      1015.9      43.4      22.9   
   09.08.2022 г. 01:30:01      28.0      998.2      1016.0      43.1      23.6   
   09.08.2022 г. 01:00:00      28.0      998.0      1015.8      43.3      23.6   
   09.08.2022 г. 00:30:01      28.4      998.2      1016.0      42.7      24.6   
   09.08.2022 г. 00:00:00      28.4      998.1      1015.9      42.5      26.4   
   08.08.2022 г. 23:30:01      28.5      998.2      1016.0      41.1      27.1   
   08.08.2022 г. 23:00:00      28.7      998.0      1015.8      39.4      29.0   
   08.08.2022 г. 22:30:01      28.8      998.0      1015.8      39.8      29.8   
   08.08.2022 г. 22:00:00      28.8      997.8      1015.6      39.9      30.1   
   08.08.2022 г. 21:30:01      28.8      997.5      1015.3      40.9      30.5   
   08.08.2022 г. 21:00:00      28.7      997.1      1014.9      44.2      31.1   
   08.08.2022 г. 20:30:01      28.7      996.5      1014.3      45.1      31.8   
   08.08.2022 г. 20:00:00      28.7      996.3      1014.1      44.1      32.1   
   08.08.2022 г. 19:30:01      28.6      996.2      1014.0      43.7      32.0   
   08.08.2022 г. 19:00:00      28.6      996.0      1013.8      44.4      32.4   
   08.08.2022 г. 18:30:01      28.6      996.1      1013.8      44.4      32.6   
   08.08.2022 г. 18:00:00      28.6      996.1      1013.9      44.5      33.8   

BaroSL graphic

TEMPE graphic